Time;durP1;ratioP1;P1;durP2;ratioP2;P2;SDS_P1;SDS_P2;PMS_P1;PMS_P2;Temp;Humidity;BMP_temperature;BMP_pressure;BME280_temperature;BME280_humidity;BME280_pressure;Samples;Min_cycle;Max_cycle;Signal;HPM_P1;HPM_P2
2022/11/02 00:01:19;;;;;;;;;;;15.10;99.90;;;;;;5086238;28;20408;-72
2022/11/02 00:03:45;;;;;;;15.43;2.35;;;15.10;99.90;;;;;;5107396;28;19912;-72
2022/11/02 00:06:11;;;;;;;13.57;2.38;;;15.20;99.90;;;;;;5103800;28;20019;-72
2022/11/02 00:08:37;;;;;;;10.15;2.22;;;15.10;99.90;;;;;;5109027;28;20035;-72
2022/11/02 00:11:02;;;;;;;12.57;3.10;;;15.10;99.90;;;;;;5106156;28;20106;-71
2022/11/02 00:13:28;;;;;;;13.85;2.67;;;15.10;99.90;;;;;;5104769;28;20073;-72
2022/11/02 00:15:54;;;;;;;9.75;2.00;;;15.10;99.90;;;;;;5103429;28;20131;-72
2022/11/02 00:18:20;;;;;;;9.23;1.92;;;15.00;99.90;;;;;;5105916;28;20089;-72
2022/11/02 00:20:45;;;;;;;12.48;2.45;;;15.00;99.90;;;;;;5104597;28;20052;-72
2022/11/02 00:23:13;;;;;;;12.73;2.38;;;15.00;99.90;;;;;;5107130;28;20540;-72
2022/11/02 00:25:42;;;;;;;14.10;2.65;;;15.00;99.90;;;;;;5103232;27;20073;-72
2022/11/02 00:28:09;;;;;;;8.90;1.88;;;15.00;99.90;;;;;;5104549;28;20093;-72
2022/11/02 00:30:35;;;;;;;13.70;2.90;;;15.00;99.90;;;;;;5111140;28;20059;-72
2022/11/02 00:33:01;;;;;;;8.85;2.70;;;14.90;99.90;;;;;;5107291;28;20536;-72
2022/11/02 00:35:27;;;;;;;8.48;2.35;;;14.90;99.90;;;;;;5105132;28;20028;-72
2022/11/02 00:37:52;;;;;;;14.95;2.72;;;14.90;99.90;;;;;;5108268;28;20050;-72
2022/11/02 00:40:18;;;;;;;12.10;2.33;;;14.90;99.90;;;;;;5103786;28;20376;-72
2022/11/02 00:42:43;;;;;;;11.45;2.20;;;14.90;99.90;;;;;;5107304;28;20036;-72
2022/11/02 00:45:09;;;;;;;8.15;2.53;;;14.90;99.90;;;;;;5102738;28;20051;-72
2022/11/02 00:47:35;;;;;;;11.25;2.20;;;14.90;99.90;;;;;;5104023;28;20441;-72
2022/11/02 00:50:00;;;;;;;16.90;2.85;;;15.00;99.90;;;;;;5106016;28;20035;-72
2022/11/02 00:52:26;;;;;;;8.77;1.95;;;14.90;99.90;;;;;;5103969;28;20036;-72
2022/11/02 00:54:52;;;;;;;12.82;2.15;;;14.80;99.90;;;;;;5103127;28;20020;-72
2022/11/02 00:57:17;;;;;;;10.48;2.00;;;14.80;99.90;;;;;;5086728;28;20034;-72
2022/11/02 00:59:43;;;;;;;11.52;2.35;;;14.80;99.90;;;;;;5100918;28;20028;-72
2022/11/02 01:02:09;;;;;;;8.60;1.92;;;14.80;99.90;;;;;;5106657;28;20059;-72
2022/11/02 01:04:34;;;;;;;10.55;2.53;;;14.70;99.90;;;;;;5107953;28;20116;-72
2022/11/02 01:07:01;;;;;;;6.85;1.73;;;14.70;99.90;;;;;;5103634;28;20031;-71
2022/11/02 01:09:27;;;;;;;9.73;2.00;;;14.70;99.90;;;;;;5088710;28;20114;-72
2022/11/02 01:11:53;;;;;;;12.60;2.28;;;14.70;99.90;;;;;;5106056;28;20115;-72
2022/11/02 01:14:19;;;;;;;8.60;1.95;;;14.70;99.90;;;;;;5105668;28;20098;-72
2022/11/02 01:16:45;;;;;;;10.60;2.33;;;14.60;99.90;;;;;;5104107;28;20541;-72
2022/11/02 01:19:12;;;;;;;9.25;1.70;;;14.60;99.90;;;;;;5105345;28;20036;-71
2022/11/02 01:21:37;;;;;;;12.70;2.03;;;14.70;99.90;;;;;;5099439;28;20075;-72
2022/11/02 01:24:03;;;;;;;10.45;1.90;;;14.60;99.90;;;;;;5107495;28;20065;-72
2022/11/02 01:26:29;;;;;;;12.77;2.13;;;14.70;99.90;;;;;;5107076;28;20028;-72
2022/11/02 01:28:54;;;;;;;4.93;1.60;;;14.70;99.90;;;;;;5100225;28;20024;-72
2022/11/02 01:31:20;;;;;;;10.93;1.88;;;14.70;99.90;;;;;;5108108;28;20038;-72
2022/11/02 01:33:46;;;;;;;7.90;2.05;;;14.60;99.90;;;;;;5111618;28;20360;-71
2022/11/02 01:36:14;;;;;;;6.80;1.73;;;14.60;99.90;;;;;;5113250;28;20047;-72
2022/11/02 01:38:40;;;;;;;7.22;1.70;;;14.60;99.90;;;;;;5109017;28;20030;-72
2022/11/02 01:41:06;;;;;;;8.25;1.95;;;14.60;99.90;;;;;;5108528;28;20039;-72
2022/11/02 01:43:35;;;;;;;8.50;1.52;;;14.70;99.90;;;;;;5111047;28;20368;-72
2022/11/02 01:46:11;;;;;;;10.43;1.90;;;14.60;99.90;;;;;;5107369;28;20472;-72
2022/11/02 01:48:39;;;;;;;9.38;1.95;;;14.60;99.90;;;;;;5111012;28;20101;-72
2022/11/02 01:51:10;;;;;;;11.07;2.08;;;14.60;99.90;;;;;;5093085;28;20404;-72
2022/11/02 01:53:41;;;;;;;7.32;2.00;;;14.60;99.90;;;;;;5086546;28;20017;-71
2022/11/02 01:56:11;;;;;;;13.35;1.95;;;14.60;99.90;;;;;;5112269;28;20028;-72
2022/11/02 01:58:37;;;;;;;7.95;2.10;;;14.50;99.90;;;;;;5111884;28;20016;-72
2022/11/02 02:01:02;;;;;;;9.10;1.95;;;14.50;99.90;;;;;;5111336;28;20118;-72
2022/11/02 02:03:31;;;;;;;9.52;1.80;;;14.40;99.90;;;;;;5092246;28;20436;-72
2022/11/02 02:06:03;;;;;;;8.82;1.80;;;14.40;99.90;;;;;;5108469;27;20582;-72
2022/11/02 02:08:30;;;;;;;6.27;1.80;;;14.40;99.90;;;;;;5102959;28;20016;-72
2022/11/02 02:10:56;;;;;;;8.98;1.98;;;14.40;99.90;;;;;;5113737;28;20301;-72
2022/11/02 02:13:23;;;;;;;8.75;1.90;;;14.50;99.90;;;;;;5112662;28;20410;-72
2022/11/02 02:16:18;;;;;;;10.65;1.90;;;14.40;99.90;;;;;;5107813;28;20084;-72
2022/11/02 02:18:49;;;;;;;8.32;2.22;;;14.30;99.90;;;;;;5099837;28;20402;-72
2022/11/02 02:21:36;;;;;;;15.27;2.42;;;14.30;99.90;;;;;;5110323;28;20126;-72
2022/11/02 02:24:08;;;;;;;8.52;2.10;;;14.40;99.90;;;;;;5084726;28;20032;-72
2022/11/02 02:26:36;;;;;;;8.70;1.92;;;14.40;99.90;;;;;;5092003;28;20024;-72
2022/11/02 02:29:10;;;;;;;10.35;2.30;;;14.40;99.90;;;;;;5111458;28;20579;-72
2022/11/02 02:31:57;;;;;;;11.98;2.20;;;14.30;99.90;;;;;;5105169;28;20027;-72
2022/11/02 02:34:58;;;;;;;7.88;1.63;;;14.40;99.90;;;;;;5104056;28;20232;-72
2022/11/02 02:37:55;;;;;;;12.48;2.28;;;14.40;99.90;;;;;;5037189;28;20079;-72
2022/11/02 02:40:33;;;;;;;6.43;1.85;;;14.30;99.90;;;;;;5083725;28;20483;-72
2022/11/02 02:43:06;;;;;;;14.85;1.83;;;14.30;99.90;;;;;;5108304;28;20036;-72
2022/11/02 02:45:40;;;;;;;10.13;1.90;;;14.20;99.90;;;;;;5099946;28;20092;-72
2022/11/02 02:48:18;;;;;;;9.75;2.08;;;14.30;99.90;;;;;;5108303;28;20023;-72
2022/11/02 02:50:50;;;;;;;6.60;1.63;;;14.30;99.90;;;;;;5100759;28;20442;-72
2022/11/02 02:53:21;;;;;;;12.35;1.85;;;14.20;99.90;;;;;;5104303;28;20579;-72
2022/11/02 02:55:49;;;;;;;13.68;2.40;;;14.20;99.90;;;;;;5108695;28;20125;-72
2022/11/02 02:58:20;;;;;;;8.13;2.08;;;14.20;99.90;;;;;;5102591;28;20043;-72
2022/11/02 03:00:46;;;;;;;12.07;2.00;;;14.10;99.90;;;;;;5110279;28;20476;-72
2022/11/02 03:03:22;;;;;;;11.57;2.40;;;14.20;99.90;;;;;;5074470;28;20126;-72
2022/11/02 03:06:18;;;;;;;5.78;1.45;;;14.20;99.90;;;;;;5107224;28;20038;-72
2022/11/02 03:08:50;;;;;;;13.18;2.30;;;14.20;99.90;;;;;;5071511;28;20044;-72
2022/11/02 03:11:19;;;;;;;10.55;1.73;;;14.20;99.90;;;;;;5108728;28;20495;-71
2022/11/02 03:13:47;;;;;;;12.80;2.20;;;14.20;99.90;;;;;;5105022;28;20028;-72
2022/11/02 03:16:22;;;;;;;13.52;2.63;;;14.20;99.90;;;;;;5106578;28;20016;-71
2022/11/02 03:18:50;;;;;;;7.20;2.10;;;14.10;99.90;;;;;;5102035;28;20107;-71
2022/11/02 03:21:41;;;;;;;12.23;2.47;;;14.20;99.90;;;;;;5105970;27;20466;-71
2022/11/02 03:24:18;;;;;;;11.55;2.10;;;14.20;99.90;;;;;;5105276;28;20020;-72
2022/11/02 03:27:11;;;;;;;13.23;2.50;;;14.10;99.90;;;;;;5109167;28;20085;-72
2022/11/02 03:29:39;;;;;;;;;;;14.10;99.90;;;;;;5108591;28;20031;-71
2022/11/02 03:32:12;;;;;;;11.85;2.15;;;14.10;99.90;;;;;;5107293;28;19943;-72
2022/11/02 03:34:45;;;;;;;10.93;2.13;;;14.10;99.90;;;;;;5099380;27;20091;-71
2022/11/02 03:37:11;;;;;;;9.05;1.83;;;14.20;99.90;;;;;;5109082;28;20051;-71
2022/11/02 03:39:42;;;;;;;11.77;2.30;;;14.10;99.90;;;;;;5106965;28;20108;-71
2022/11/02 03:42:11;;;;;;;14.38;2.85;;;14.10;99.90;;;;;;5104310;28;20036;-71
2022/11/02 03:44:38;;;;;;;8.43;2.35;;;14.10;99.90;;;;;;5105310;28;20464;-71
2022/11/02 03:47:08;;;;;;;9.68;1.73;;;14.10;99.90;;;;;;5103191;28;20051;-72
2022/11/02 03:49:35;;;;;;;12.75;2.22;;;14.00;99.90;;;;;;5105359;28;20451;-72
2022/11/02 03:52:07;;;;;;;11.30;2.83;;;14.00;99.90;;;;;;5105798;28;20097;-71
2022/11/02 03:54:38;;;;;;;14.73;2.50;;;14.00;99.90;;;;;;5105492;28;20769;-71
2022/11/02 03:57:08;;;;;;;11.55;2.08;;;14.00;99.90;;;;;;5106173;28;20015;-70
2022/11/02 03:59:34;;;;;;;11.07;2.05;;;14.00;99.90;;;;;;5101055;28;20023;-70
2022/11/02 04:02:01;;;;;;;11.23;2.20;;;14.00;99.90;;;;;;5104642;28;20043;-70
2022/11/02 04:04:26;;;;;;;14.30;2.45;;;13.90;99.90;;;;;;5101599;28;20009;-70
2022/11/02 04:06:53;;;;;;;18.88;2.92;;;13.90;99.90;;;;;;5108728;28;20069;-70
2022/11/02 04:09:18;;;;;;;13.73;2.17;;;13.90;99.90;;;;;;5105007;28;20516;-70
2022/11/02 04:14:37;;;;;;;8.85;2.00;;;13.90;99.90;;;;;;5103836;28;20122;-69
2022/11/02 04:19:49;;;;;;;11.95;2.88;;;13.90;99.90;;;;;;5105621;28;20101;-70
2022/11/02 04:25:17;;;;;;;10.48;2.30;;;13.90;99.90;;;;;;5101212;28;20038;-70
2022/11/02 04:27:45;;;;;;;14.32;2.53;;;13.90;99.90;;;;;;5101750;28;20088;-70
2022/11/02 04:30:11;;;;;;;14.32;2.47;;;13.90;99.90;;;;;;5108834;28;20446;-70
2022/11/02 04:35:27;;;;;;;14.82;2.22;;;13.90;99.90;;;;;;5096456;28;20090;-70
2022/11/02 04:40:37;;;;;;;14.63;2.58;;;13.90;99.90;;;;;;5101208;28;20031;-70
2022/11/02 04:43:03;;;;;;;16.30;2.70;;;13.90;99.90;;;;;;5109500;28;20020;-70
2022/11/02 04:45:28;;;;;;;11.10;2.05;;;13.90;99.90;;;;;;5103665;28;20051;-70
2022/11/02 04:48:02;;;;;;;12.43;2.85;;;13.80;99.90;;;;;;5104685;28;20023;-70
2022/11/02 04:50:29;;;;;;;11.98;2.10;;;13.80;99.90;;;;;;5105686;28;20547;-70
2022/11/02 04:52:59;;;;;;;11.38;2.28;;;13.80;99.90;;;;;;5102517;28;20074;-70
2022/11/02 04:55:25;;;;;;;15.13;2.45;;;13.70;99.90;;;;;;5103823;28;20043;-70
2022/11/02 04:57:51;;;;;;;16.15;2.85;;;13.80;99.90;;;;;;5103628;28;20028;-70
2022/11/02 05:00:17;;;;;;;16.13;2.47;;;13.80;99.90;;;;;;5106643;28;20548;-70
2022/11/02 05:02:46;;;;;;;13.88;2.50;;;13.80;99.90;;;;;;5087305;28;20024;-70
2022/11/02 05:05:12;;;;;;;16.77;3.00;;;13.80;99.90;;;;;;5095274;28;20392;-70
2022/11/02 05:07:37;;;;;;;13.50;2.92;;;13.70;99.90;;;;;;5105888;28;20031;-70
2022/11/02 05:10:03;;;;;;;11.88;2.20;;;13.70;99.90;;;;;;5111777;28;20027;-70
2022/11/02 05:12:29;;;;;;;17.23;2.63;;;13.60;99.90;;;;;;5106851;28;20027;-70
2022/11/02 05:14:55;;;;;;;9.73;2.72;;;13.70;99.90;;;;;;5111803;28;20015;-70
2022/11/02 05:17:20;;;;;;;9.10;2.53;;;13.60;99.90;;;;;;5107503;28;20500;-70
2022/11/02 05:19:46;;;;;;;14.43;3.22;;;13.60;99.90;;;;;;5113618;28;20016;-70
2022/11/02 05:22:12;;;;;;;13.35;2.90;;;13.70;99.90;;;;;;5106652;27;20123;-70
2022/11/02 05:24:37;;;;;;;11.57;2.63;;;13.60;99.90;;;;;;5110787;28;20020;-70
2022/11/02 05:27:03;;;;;;;12.68;2.60;;;13.50;99.90;;;;;;5107229;28;20016;-70
2022/11/02 05:29:28;;;;;;;12.85;2.03;;;13.50;99.90;;;;;;5111778;28;20027;-70
2022/11/02 05:31:56;;;;;;;7.80;1.92;;;13.60;99.90;;;;;;5109740;28;20028;-70
2022/11/02 05:34:21;;;;;;;13.50;2.28;;;13.50;99.90;;;;;;5095868;28;20023;-70
2022/11/02 05:36:48;;;;;;;10.43;2.38;;;13.50;99.90;;;;;;5109927;28;20436;-70
2022/11/02 05:39:13;;;;;;;12.07;2.17;;;13.50;99.90;;;;;;5092150;28;20028;-71
2022/11/02 05:41:39;;;;;;;14.73;2.28;;;13.40;99.90;;;;;;5090717;28;20034;-70
2022/11/02 05:44:04;;;;;;;9.18;1.92;;;13.50;99.90;;;;;;5109266;28;20055;-70
2022/11/02 05:46:30;;;;;;;12.68;1.90;;;13.40;99.90;;;;;;5109293;28;20024;-70
2022/11/02 05:48:56;;;;;;;10.85;2.20;;;13.50;99.90;;;;;;5104005;28;20026;-70
2022/11/02 05:51:21;;;;;;;10.35;2.03;;;13.50;99.90;;;;;;5111120;28;20145;-70
2022/11/02 05:53:47;;;;;;;9.82;2.40;;;13.50;99.90;;;;;;5112582;28;20491;-70
2022/11/02 05:56:13;;;;;;;16.83;2.75;;;13.50;99.90;;;;;;5110420;28;20040;-70
2022/11/02 05:58:39;;;;;;;15.68;2.45;;;13.60;99.90;;;;;;5109808;28;20016;-70
2022/11/02 06:01:06;;;;;;;12.73;1.95;;;13.60;99.90;;;;;;5109811;28;20054;-70
2022/11/02 06:03:32;;;;;;;16.98;2.92;;;13.50;99.90;;;;;;5103952;28;20047;-70
2022/11/02 06:06:05;;;;;;;11.18;2.80;;;13.50;99.90;;;;;;5107410;28;20125;-71
2022/11/02 06:08:32;;;;;;;10.95;2.08;;;13.50;99.90;;;;;;5105653;28;20069;-70
2022/11/02 06:11:02;;;;;;;10.68;2.53;;;13.50;99.90;;;;;;5103341;27;20527;-70
2022/11/02 06:13:27;;;;;;;15.10;2.70;;;13.50;99.90;;;;;;5110374;28;20035;-70
2022/11/02 06:15:53;;;;;;;10.55;2.22;;;13.60;99.90;;;;;;5104673;27;20031;-70
2022/11/02 06:18:19;;;;;;;15.73;2.63;;;13.50;99.90;;;;;;5095709;28;20056;-70
2022/11/02 06:20:44;;;;;;;11.80;2.50;;;13.50;99.90;;;;;;5102193;28;20027;-70
2022/11/02 06:23:13;;;;;;;15.75;2.90;;;13.50;99.90;;;;;;5111752;28;20035;-70
2022/11/02 06:25:38;;;;;;;13.15;2.35;;;13.40;99.90;;;;;;5098075;27;20482;-71
2022/11/02 06:28:04;;;;;;;12.23;2.33;;;13.40;99.90;;;;;;5103782;28;20015;-70
2022/11/02 06:30:30;;;;;;;13.27;1.95;;;13.30;99.90;;;;;;5102057;27;20020;-71
2022/11/02 06:32:55;;;;;;;13.27;2.47;;;13.30;99.90;;;;;;5105249;28;20035;-75
2022/11/02 06:35:22;;;;;;;12.73;2.40;;;13.30;99.90;;;;;;5109716;28;20027;-71
2022/11/02 06:37:48;;;;;;;12.57;2.42;;;13.40;99.90;;;;;;5107400;28;20273;-71
2022/11/02 06:40:14;;;;;;;20.02;3.70;;;13.30;99.90;;;;;;5105277;28;20376;-71
2022/11/02 06:42:40;;;;;;;13.45;2.72;;;13.20;99.90;;;;;;5105078;28;20114;-71
2022/11/02 06:45:06;;;;;;;15.30;2.38;;;13.10;99.90;;;;;;5108203;27;20526;-71
2022/11/02 06:47:34;;;;;;;18.73;2.72;;;13.30;99.90;;;;;;5088161;28;20034;-71
2022/11/02 06:50:00;;;;;;;9.90;2.17;;;13.30;99.90;;;;;;5100116;28;20024;-71
2022/11/02 06:52:26;;;;;;;15.95;2.83;;;13.30;99.90;;;;;;5105598;27;20043;-72
2022/11/02 06:54:52;;;;;;;10.35;2.50;;;13.30;99.90;;;;;;5108043;28;20028;-71
2022/11/02 06:57:18;;;;;;;15.23;2.80;;;13.30;99.90;;;;;;5094973;28;20023;-71
2022/11/02 06:59:44;;;;;;;18.10;2.83;;;13.30;99.90;;;;;;5102417;28;20028;-72
2022/11/02 07:02:09;;;;;;;13.63;2.65;;;13.30;99.90;;;;;;5102975;28;20377;-72
2022/11/02 07:04:35;;;;;;;13.70;2.42;;;13.30;99.90;;;;;;5106063;28;20042;-72
2022/11/02 07:07:01;;;;;;;16.02;1.95;;;13.30;99.90;;;;;;5110210;27;20039;-71
2022/11/02 07:09:26;;;;;;;12.68;2.47;;;13.30;99.90;;;;;;5104293;28;20016;-71
2022/11/02 07:11:52;;;;;;;16.25;2.95;;;13.30;99.90;;;;;;5106220;28;20118;-70
2022/11/02 07:14:18;;;;;;;11.20;3.10;;;13.20;99.90;;;;;;5102393;28;20024;-71
2022/11/02 07:16:43;;;;;;;12.73;2.15;;;13.30;99.90;;;;;;5111576;28;20027;-70
2022/11/02 07:19:09;;;;;;;16.60;2.67;;;13.20;99.90;;;;;;5105150;28;20081;-75
2022/11/02 07:21:34;;;;;;;17.30;2.83;;;13.30;99.90;;;;;;5104502;28;20039;-70
2022/11/02 07:24:00;;;;;;;9.90;2.47;;;13.20;99.90;;;;;;5091891;28;20122;-71
2022/11/02 07:26:26;;;;;;;13.40;2.70;;;13.30;99.90;;;;;;5109728;28;20425;-71
2022/11/02 07:28:51;;;;;;;19.95;2.85;;;13.30;99.90;;;;;;5102730;28;20031;-71
2022/11/02 07:31:17;;;;;;;16.83;3.25;;;13.30;99.90;;;;;;5106633;28;20043;-70
2022/11/02 07:33:43;;;;;;;13.40;3.40;;;13.30;99.90;;;;;;5105235;28;20023;-71
2022/11/02 07:36:08;;;;;;;14.27;2.80;;;13.30;99.90;;;;;;5106739;28;20399;-71
2022/11/02 07:38:34;;;;;;;13.50;3.30;;;13.30;99.90;;;;;;5105496;27;20059;-71
2022/11/02 07:41:00;;;;;;;14.30;2.65;;;13.30;99.90;;;;;;5100755;28;20040;-71
2022/11/02 07:43:25;;;;;;;16.02;2.78;;;13.30;99.90;;;;;;5105151;28;20031;-70
2022/11/02 07:45:51;;;;;;;18.67;3.22;;;13.30;99.90;;;;;;5102106;28;20027;-71
2022/11/02 07:48:16;;;;;;;11.75;2.70;;;13.30;99.90;;;;;;5107641;28;20028;-71
2022/11/02 07:50:42;;;;;;;14.18;2.30;;;13.20;99.90;;;;;;5104230;27;20031;-71
2022/11/02 07:53:08;;;;;;;16.17;3.00;;;13.30;99.90;;;;;;5106195;28;20023;-71
2022/11/02 07:55:34;;;;;;;14.18;2.95;;;13.30;99.90;;;;;;5103118;28;20521;-71
2022/11/02 07:58:08;;;;;;;14.55;3.15;;;13.30;99.90;;;;;;5106142;27;20090;-71
2022/11/02 08:00:36;;;;;;;11.35;2.92;;;13.40;99.90;;;;;;5101455;28;20535;-71
2022/11/02 08:03:04;;;;;;;14.88;2.85;;;13.40;99.90;;;;;;5106473;28;20023;-71
2022/11/02 08:05:31;;;;;;;11.85;2.80;;;13.50;99.90;;;;;;5106411;28;20023;-70
2022/11/02 08:08:01;;;;;;;15.90;3.20;;;13.50;99.90;;;;;;5100623;28;20032;-71
2022/11/02 08:10:29;;;;;;;19.75;3.20;;;13.50;99.90;;;;;;5109712;28;20123;-70
2022/11/02 08:12:55;;;;;;;13.85;2.58;;;13.60;99.90;;;;;;5103719;28;20024;-71
2022/11/02 08:15:20;;;;;;;18.58;3.78;;;13.60;99.90;;;;;;5107257;28;20032;-71
2022/11/02 08:17:46;;;;;;;19.77;2.60;;;13.60;99.90;;;;;;5106211;28;20387;-71
2022/11/02 08:20:12;;;;;;;17.58;2.83;;;13.70;99.90;;;;;;5108351;28;20024;-71
2022/11/02 08:22:39;;;;;;;11.98;2.60;;;13.60;99.90;;;;;;5100333;28;20031;-71
2022/11/02 08:25:06;;;;;;;16.52;3.22;;;13.70;99.90;;;;;;5106332;28;20019;-71
2022/11/02 08:27:32;;;;;;;21.90;2.95;;;13.70;99.90;;;;;;5101968;28;20021;-71
2022/11/02 08:29:57;;;;;;;16.52;2.90;;;13.80;99.90;;;;;;5100565;28;20027;-71
2022/11/02 08:32:23;;;;;;;16.85;2.85;;;13.80;99.90;;;;;;5105419;28;20107;-71
2022/11/02 08:34:49;;;;;;;14.27;3.17;;;13.80;99.90;;;;;;5107433;28;20570;-70
2022/11/02 08:37:14;;;;;;;19.83;3.92;;;13.80;99.90;;;;;;5108444;28;20361;-71
2022/11/02 08:39:40;;;;;;;17.10;3.38;;;13.80;99.90;;;;;;5108709;28;20035;-71
2022/11/02 08:42:05;;;;;;;14.07;2.92;;;13.80;99.90;;;;;;5104192;28;20040;-71
2022/11/02 08:44:31;;;;;;;14.38;2.60;;;13.90;99.90;;;;;;5106121;28;20027;-71
2022/11/02 08:46:57;;;;;;;16.05;3.13;;;13.90;99.90;;;;;;5108307;28;20032;-71
2022/11/02 08:49:23;;;;;;;14.02;2.75;;;13.90;99.90;;;;;;5085634;28;20051;-72
2022/11/02 08:51:48;;;;;;;16.40;3.45;;;13.90;99.90;;;;;;5105120;28;20028;-71
2022/11/02 08:54:14;;;;;;;19.10;4.15;;;13.90;99.90;;;;;;5105871;28;20128;-70
2022/11/02 08:56:40;;;;;;;18.10;3.58;;;13.90;99.90;;;;;;5084260;28;20031;-71
2022/11/02 08:59:05;;;;;;;15.85;3.72;;;14.00;99.90;;;;;;5101156;28;20054;-71
2022/11/02 09:01:31;;;;;;;11.98;2.80;;;14.10;99.90;;;;;;5107105;28;20028;-71
2022/11/02 09:03:57;;;;;;;26.27;3.63;;;14.00;99.90;;;;;;5081455;28;20228;-70
2022/11/02 09:06:22;;;;;;;16.80;3.67;;;14.10;99.90;;;;;;5106265;28;20512;-71
2022/11/02 09:08:48;;;;;;;17.00;3.22;;;14.20;99.90;;;;;;5100311;28;20035;-70
2022/11/02 09:11:14;;;;;;;16.00;2.97;;;14.30;99.90;;;;;;5103499;28;20496;-70
2022/11/02 09:13:39;;;;;;;18.15;3.50;;;14.30;99.90;;;;;;5102500;28;20384;-70
2022/11/02 09:16:05;;;;;;;15.63;3.42;;;14.40;99.90;;;;;;5107406;28;20116;-71
2022/11/02 09:18:31;;;;;;;10.80;2.85;;;14.60;99.90;;;;;;5084720;28;20392;-70
2022/11/02 09:21:00;;;;;;;16.40;3.45;;;14.60;99.90;;;;;;5106032;28;20039;-71
2022/11/02 09:23:26;;;;;;;15.27;2.97;;;14.60;99.90;;;;;;5104300;28;20027;-70
2022/11/02 09:25:52;;;;;;;21.92;3.83;;;14.60;99.90;;;;;;5103037;28;20039;-70
2022/11/02 09:28:18;;;;;;;19.02;4.55;;;14.70;99.90;;;;;;5099439;28;20055;-70
2022/11/02 09:30:43;;;;;;;17.65;2.72;;;14.90;99.90;;;;;;5103191;28;20384;-70
2022/11/02 09:33:10;;;;;;;13.48;2.70;;;14.90;99.90;;;;;;5108744;28;20024;-70
2022/11/02 09:35:38;;;;;;;15.15;2.72;;;14.90;99.90;;;;;;5104483;28;20028;-71
2022/11/02 09:38:04;;;;;;;18.20;3.70;;;15.00;99.90;;;;;;5106178;28;20550;-71
2022/11/02 09:40:40;;;;;;;18.52;3.70;;;15.10;99.90;;;;;;5100522;28;20038;-71
2022/11/02 09:43:30;;;;;;;15.20;3.00;;;15.10;99.90;;;;;;5105467;28;20088;-72
2022/11/02 09:46:02;;;;;;;15.73;3.03;;;15.30;99.90;;;;;;5101676;28;20028;-72
2022/11/02 09:48:33;;;;;;;14.65;2.70;;;15.30;99.90;;;;;;5108377;28;20478;-72
2022/11/02 09:51:11;;;;;;;18.98;3.17;;;15.30;99.90;;;;;;5104259;28;20071;-72
2022/11/02 09:53:50;;;;;;;18.60;3.72;;;15.40;99.90;;;;;;5094186;28;20012;-72
2022/11/02 09:56:18;;;;;;;14.82;2.88;;;15.50;99.90;;;;;;5106936;27;20016;-72
2022/11/02 09:58:48;;;;;;;15.52;2.95;;;15.50;99.90;;;;;;5105588;28;20027;-72
2022/11/02 10:01:36;;;;;;;16.80;3.10;;;15.50;99.90;;;;;;5104002;28;20051;-72
2022/11/02 10:04:42;;;;;;;18.15;3.05;;;15.50;99.90;;;;;;5108345;28;20024;-72
2022/11/02 10:07:14;;;;;;;14.57;2.92;;;15.60;99.90;;;;;;5103007;28;20039;-72
2022/11/02 10:10:12;;;;;;;11.63;2.73;;;15.80;99.90;;;;;;5104986;28;20020;-72
2022/11/02 10:13:03;;;;;;;18.63;3.05;;;15.70;99.90;;;;;;5108152;28;20282;-72
2022/11/02 10:15:44;;;;;;;13.32;2.75;;;15.80;99.90;;;;;;5110552;28;20049;-71
2022/11/02 10:18:27;;;;;;;14.68;2.60;;;15.90;99.90;;;;;;5103412;28;20028;-72
2022/11/02 10:21:13;;;;;;;;;;;15.90;99.90;;;;;;5109924;28;20039;-72
2022/11/02 10:23:40;;;;;;;15.93;3.42;;;15.90;99.90;;;;;;5102201;28;19915;-71
2022/11/02 10:26:08;;;;;;;13.98;2.60;;;16.00;99.90;;;;;;5106052;28;20031;-72
2022/11/02 10:28:37;;;;;;;14.90;3.35;;;16.00;99.90;;;;;;5101220;27;20098;-72
2022/11/02 10:31:14;;;;;;;19.02;3.10;;;16.00;99.90;;;;;;5106797;28;20463;-71
2022/11/02 10:33:40;;;;;;;13.68;3.05;;;16.00;99.90;;;;;;5102755;28;20017;-71
2022/11/02 10:36:21;;;;;;;14.30;3.10;;;16.20;99.90;;;;;;5108751;28;20048;-71
2022/11/02 10:39:26;;;;;;;13.38;2.97;;;16.20;99.90;;;;;;5104088;27;20163;-71
2022/11/02 10:42:06;;;;;;;14.77;3.08;;;16.20;99.90;;;;;;5108838;28;20034;-71
2022/11/02 10:44:52;;;;;;;15.88;2.88;;;16.20;99.90;;;;;;5106494;28;20028;-71
2022/11/02 10:47:21;;;;;;;18.75;3.30;;;16.30;99.90;;;;;;5104618;27;20123;-71
2022/11/02 10:50:05;;;;;;;11.77;3.15;;;16.30;99.90;;;;;;5103686;28;20027;-71
2022/11/02 10:52:36;;;;;;;16.38;3.28;;;16.30;99.90;;;;;;5109310;28;20107;-71
2022/11/02 10:55:03;;;;;;;14.52;2.53;;;16.30;99.90;;;;;;5103823;28;20016;-71
2022/11/02 10:57:31;;;;;;;17.00;3.35;;;16.30;99.90;;;;;;5100979;28;20032;-71
2022/11/02 11:00:24;;;;;;;14.93;2.85;;;16.30;99.90;;;;;;5101866;28;20032;-71
2022/11/02 11:03:04;;;;;;;16.08;3.30;;;16.40;99.90;;;;;;5110784;28;20035;-71
2022/11/02 11:05:32;;;;;;;15.13;2.60;;;16.40;99.90;;;;;;5102226;28;20024;-71
2022/11/02 11:07:59;;;;;;;15.23;3.08;;;16.40;99.90;;;;;;5108828;28;20016;-71
2022/11/02 11:10:26;;;;;;;8.90;2.40;;;16.50;99.90;;;;;;5102903;28;20020;-71
2022/11/02 11:12:54;;;;;;;11.73;2.55;;;16.50;99.90;;;;;;5108657;28;20030;-71
2022/11/02 11:15:27;;;;;;;15.48;2.92;;;16.60;99.90;;;;;;5100642;28;20061;-71
2022/11/02 11:17:54;;;;;;;13.27;2.60;;;16.50;99.90;;;;;;5110180;28;20290;-71
2022/11/02 11:20:34;;;;;;;22.48;3.97;;;16.40;99.90;;;;;;5100547;28;20035;-71
2022/11/02 11:23:16;;;;;;;13.27;2.80;;;16.30;99.90;;;;;;5099443;28;20112;-71
2022/11/02 11:25:42;;;;;;;17.52;2.65;;;16.40;99.90;;;;;;5093507;28;20065;-71
2022/11/02 11:28:21;;;;;;;18.67;2.95;;;16.40;99.90;;;;;;5108283;28;20028;-71
2022/11/02 11:31:00;;;;;;;16.20;3.08;;;16.50;99.90;;;;;;5100403;28;20031;-71
2022/11/02 11:33:25;;;;;;;11.95;3.05;;;16.40;99.90;;;;;;5104657;28;20482;-71
2022/11/02 11:35:51;;;;;;;21.55;4.13;;;16.50;99.90;;;;;;5106589;28;20141;-71
2022/11/02 11:38:24;;;;;;;17.85;3.08;;;16.50;99.90;;;;;;5103472;28;20026;-71
2022/11/02 11:40:53;;;;;;;17.83;2.67;;;16.60;99.90;;;;;;5091340;28;20102;-71
2022/11/02 11:43:22;;;;;;;11.38;3.03;;;16.70;99.90;;;;;;5107005;27;20133;-71
2022/11/02 11:46:05;;;;;;;18.00;3.47;;;16.60;99.90;;;;;;5102959;28;20107;-71
2022/11/02 11:48:53;;;;;;;14.85;3.35;;;16.40;99.90;;;;;;5109931;28;20039;-71
2022/11/02 11:51:21;;;;;;;17.13;3.88;;;16.40;99.90;;;;;;5100379;28;20036;-71
2022/11/02 11:54:14;;;;;;;10.90;2.47;;;16.40;99.90;;;;;;5105274;28;20024;-71
2022/11/02 11:56:39;;;;;;;16.88;2.75;;;16.50;99.90;;;;;;5106794;28;20027;-71
2022/11/02 11:59:20;;;;;;;11.57;3.25;;;16.50;99.90;;;;;;5104822;28;20035;-71
2022/11/02 12:01:46;;;;;;;15.38;3.45;;;16.60;99.90;;;;;;5105055;28;20036;-71
2022/11/02 12:04:12;;;;;;;14.85;2.60;;;16.60;99.90;;;;;;5105381;28;20051;-72
2022/11/02 12:07:05;;;;;;;16.73;3.08;;;16.60;99.90;;;;;;5105435;28;20035;-72
2022/11/02 12:09:57;;;;;;;13.95;2.53;;;16.50;99.90;;;;;;5102242;28;20024;-71
2022/11/02 12:12:31;;;;;;;13.55;2.70;;;16.50;99.90;;;;;;5106559;28;20026;-71
2022/11/02 12:14:57;;;;;;;17.40;3.25;;;16.50;99.90;;;;;;5102748;27;20038;-71
2022/11/02 12:17:47;;;;;;;15.50;3.35;;;16.60;99.90;;;;;;5105298;28;20024;-71
2022/11/02 12:20:39;;;;;;;12.73;3.08;;;16.50;99.90;;;;;;5108854;28;20051;-71
2022/11/02 12:23:23;;;;;;;11.80;3.17;;;16.70;99.90;;;;;;5103004;28;20182;-71
2022/11/02 12:25:59;;;;;;;11.38;2.97;;;16.80;99.90;;;;;;5103559;28;20023;-71
2022/11/02 12:28:47;;;;;;;13.60;2.45;;;16.70;99.90;;;;;;5103030;28;20020;-71
2022/11/02 12:31:18;;;;;;;14.30;2.78;;;16.80;99.90;;;;;;5101534;28;20073;-71
2022/11/02 12:33:58;;;;;;;12.27;2.80;;;16.80;99.90;;;;;;5107913;28;20024;-71
2022/11/02 12:36:30;;;;;;;16.10;3.38;;;16.80;99.90;;;;;;5087703;28;20032;-71
2022/11/02 12:39:21;;;;;;;18.80;4.05;;;16.90;99.90;;;;;;5101386;28;20032;-71
2022/11/02 12:42:17;;;;;;;13.55;3.35;;;16.80;99.90;;;;;;5086630;28;20865;-71
2022/11/02 12:45:23;;;;;;;15.75;2.92;;;16.70;99.90;;;;;;5103330;28;20469;-71
2022/11/02 12:47:56;;;;;;;13.00;2.95;;;16.70;99.90;;;;;;5106595;28;20035;-71
2022/11/02 12:51:03;;;;;;;21.80;3.22;;;16.60;99.90;;;;;;5097820;28;20081;-71
2022/11/02 12:53:58;;;;;;;12.23;2.80;;;16.60;99.90;;;;;;5103282;28;20019;-70
2022/11/02 12:56:44;;;;;;;8.75;2.67;;;16.50;99.90;;;;;;5103341;28;20125;-71
2022/11/02 12:59:25;;;;;;;11.90;2.60;;;16.50;99.90;;;;;;5092153;28;20476;-71
2022/11/02 13:01:56;;;;;;;14.82;2.55;;;16.40;99.90;;;;;;5103142;28;20043;-71
2022/11/02 13:04:24;;;;;;;12.57;2.90;;;16.40;99.90;;;;;;5101133;28;20487;-71
2022/11/02 13:06:55;;;;;;;14.52;4.15;;;16.50;99.90;;;;;;5108030;28;20051;-71
2022/11/02 13:09:30;;;;;;;15.43;3.80;;;16.40;99.90;;;;;;5090679;28;20020;-71